createdAt,value
2018-08-23T00:00:02.245Z,50.90
2018-08-23T00:02:37.459Z,51.40
2018-08-23T00:05:10.848Z,52.90
2018-08-23T00:07:45.545Z,52.00
2018-08-23T00:10:19.707Z,50.50
2018-08-23T00:12:57.347Z,52.10
2018-08-23T00:15:34.380Z,53.20
2018-08-23T00:18:10.101Z,51.00
2018-08-23T00:20:43.784Z,50.20
2018-08-23T00:23:19.680Z,51.60
2018-08-23T00:25:53.431Z,49.30
2018-08-23T00:28:28.512Z,50.20
2018-08-23T00:31:02.848Z,47.90
2018-08-23T00:33:36.182Z,47.00
2018-08-23T00:36:12.021Z,45.70
2018-08-23T00:38:47.598Z,46.00
2018-08-23T00:41:27.446Z,47.90
2018-08-23T00:44:02.988Z,43.90
2018-08-23T00:46:39.301Z,43.70
2018-08-23T00:49:15.233Z,44.40
2018-08-23T00:51:50.059Z,44.60
2018-08-23T00:54:23.419Z,48.20
2018-08-23T00:56:56.787Z,47.40
2018-08-23T00:59:30.124Z,45.20
2018-08-23T01:02:11.799Z,44.80
2018-08-23T01:04:53.069Z,44.20
2018-08-23T01:07:31.027Z,45.90
2018-08-23T01:10:05.622Z,45.80
2018-08-23T01:13:03.040Z,44.20
2018-08-23T01:15:37.633Z,45.60
2018-08-23T01:18:17.659Z,45.60
2018-08-23T01:20:52.728Z,44.40
2018-08-23T01:23:26.215Z,44.70
2018-08-23T01:26:02.392Z,49.60
2018-08-23T01:28:38.651Z,46.90
2018-08-23T01:31:27.330Z,49.30
2018-08-23T01:34:02.875Z,47.80
2018-08-23T01:36:37.615Z,46.90
2018-08-23T01:39:13.022Z,46.20
2018-08-23T01:41:47.169Z,49.40
2018-08-23T01:44:21.125Z,52.00
2018-08-23T01:46:56.212Z,51.60
2018-08-23T01:49:30.951Z,53.70
2018-08-23T01:52:06.936Z,54.30
2018-08-23T01:54:42.630Z,57.60
2018-08-23T01:57:21.093Z,58.00
2018-08-23T01:59:57.999Z,60.50
2018-08-23T02:02:32.474Z,60.40
2018-08-23T02:05:06.225Z,58.00
2018-08-23T02:07:40.116Z,59.00
2018-08-23T02:10:14.871Z,60.90
2018-08-23T02:12:53.333Z,61.70
2018-08-23T02:15:26.771Z,62.20
2018-08-23T02:18:01.512Z,61.40
2018-08-23T02:20:36.552Z,61.00
2018-08-23T02:23:22.954Z,61.70
2018-08-23T02:26:14.974Z,61.80
2018-08-23T02:28:55.516Z,63.50
2018-08-23T02:34:52.605Z,64.00
2018-08-23T02:37:26.143Z,68.20
2018-08-23T02:39:59.599Z,66.80
2018-08-23T02:42:33.887Z,69.60
2018-08-23T02:45:10.427Z,68.10
2018-08-23T02:47:44.450Z,69.10
2018-08-23T02:50:18.775Z,68.10
2018-08-23T02:52:52.331Z,70.50
2018-08-23T02:55:26.090Z,73.00
2018-08-23T02:58:04.458Z,70.70
2018-08-23T03:00:42.004Z,70.80
2018-08-23T03:03:16.007Z,69.00
2018-08-23T03:05:50.105Z,68.90
2018-08-23T03:08:32.955Z,71.30
2018-08-23T03:11:07.070Z,71.50
2018-08-23T03:13:43.886Z,72.00
2018-08-23T03:16:17.500Z,71.90
2018-08-23T03:18:51.544Z,73.50
2018-08-23T03:21:25.119Z,72.20
2018-08-23T03:23:58.739Z,73.10
2018-08-23T03:26:33.722Z,72.60
2018-08-23T03:29:07.631Z,73.80
2018-08-23T03:31:42.207Z,73.50
2018-08-23T03:34:17.753Z,74.30
2018-08-23T03:36:52.430Z,75.20
2018-08-23T03:39:27.767Z,75.70
2018-08-23T03:42:04.176Z,76.50
2018-08-23T03:44:40.559Z,77.30
2018-08-23T03:47:13.840Z,79.00
2018-08-23T03:49:48.849Z,80.80
2018-08-23T03:52:26.063Z,82.60
2018-08-23T03:55:03.034Z,84.70
2018-08-23T03:57:40.870Z,86.70
2018-08-23T04:00:15.216Z,87.10
2018-08-23T04:02:49.965Z,87.80
2018-08-23T04:05:25.493Z,88.50
2018-08-23T04:08:00.882Z,88.30
2018-08-23T04:10:35.557Z,88.60
2018-08-23T04:13:12.467Z,89.00
2018-08-23T04:15:48.934Z,90.40
2018-08-23T04:18:28.520Z,91.00
2018-08-23T04:21:04.185Z,91.80
2018-08-23T04:23:41.181Z,92.70
2018-08-23T04:26:20.493Z,93.60
2018-08-23T04:28:56.732Z,94.50
2018-08-23T04:31:32.901Z,94.90
2018-08-23T04:34:14.606Z,95.40
2018-08-23T04:36:51.354Z,95.90
2018-08-23T04:39:26.702Z,96.50
2018-08-23T04:42:04.789Z,97.50
2018-08-23T04:44:45.985Z,97.90
2018-08-23T04:47:21.094Z,98.60
2018-08-23T04:49:58.101Z,99.20
2018-08-23T04:52:35.955Z,99.40
2018-08-23T04:55:10.995Z,99.90
2018-08-23T04:57:46.378Z,99.90
2018-08-23T05:00:21.119Z,99.90
2018-08-23T05:02:55.534Z,99.90
2018-08-23T05:05:32.731Z,99.90
2018-08-23T05:08:09.666Z,99.90
2018-08-23T05:10:47.918Z,99.90
2018-08-23T05:13:24.028Z,99.90
2018-08-23T05:16:00.367Z,99.90
2018-08-23T05:18:35.014Z,99.90
2018-08-23T05:21:11.200Z,99.90
2018-08-23T05:23:46.957Z,99.90
2018-08-23T05:26:24.968Z,99.90
2018-08-23T05:29:08.491Z,99.90
2018-08-23T05:31:44.058Z,99.90
2018-08-23T05:34:21.204Z,99.90
2018-08-23T05:36:57.149Z,99.90
2018-08-23T05:39:44.607Z,99.90
2018-08-23T05:42:20.869Z,99.90
2018-08-23T05:44:55.238Z,99.90
2018-08-23T05:47:33.370Z,99.90
2018-08-23T05:50:07.363Z,99.90
2018-08-23T05:52:42.215Z,99.90
2018-08-23T05:55:16.814Z,99.90
2018-08-23T05:57:52.186Z,99.90
2018-08-23T06:00:29.972Z,99.90
2018-08-23T06:03:04.152Z,99.90
2018-08-23T06:05:40.114Z,99.90
2018-08-23T06:08:15.244Z,99.90
2018-08-23T06:10:56.966Z,99.90
2018-08-23T06:13:31.287Z,99.90
2018-08-23T06:16:06.640Z,99.90
2018-08-23T06:18:41.778Z,99.90
2018-08-23T06:21:16.231Z,99.90
2018-08-23T06:24:00.355Z,99.90
2018-08-23T06:26:56.508Z,99.90
2018-08-23T06:29:34.814Z,99.90
2018-08-23T06:32:12.151Z,99.90
2018-08-23T06:34:55.192Z,99.90
2018-08-23T06:37:35.632Z,99.90
2018-08-23T06:40:17.273Z,99.90
2018-08-23T06:43:02.143Z,99.90
2018-08-23T06:45:38.571Z,99.90
2018-08-23T06:48:13.599Z,99.90
2018-08-23T06:50:51.513Z,99.90
2018-08-23T06:53:31.152Z,99.90
2018-08-23T06:56:04.754Z,99.90
2018-08-23T06:58:39.994Z,99.90
2018-08-23T07:01:27.019Z,99.90
2018-08-23T07:04:06.472Z,99.90
2018-08-23T07:06:44.425Z,99.90
2018-08-23T07:09:24.107Z,99.90
2018-08-23T07:12:07.615Z,99.90
2018-08-23T07:14:45.216Z,99.90
2018-08-23T07:17:23.192Z,99.90
2018-08-23T07:19:56.835Z,99.90
2018-08-23T07:22:32.146Z,99.90
2018-08-23T07:25:05.582Z,99.90
2018-08-23T07:27:38.888Z,99.90
2018-08-23T07:30:17.872Z,99.90
2018-08-23T07:32:52.390Z,99.90
2018-08-23T07:35:25.913Z,99.90
2018-08-23T07:37:59.727Z,99.90
2018-08-23T07:40:33.033Z,99.90
2018-08-23T07:43:06.346Z,99.90
2018-08-23T14:37:09.215Z,99.90
2018-08-23T14:39:45.142Z,99.90
2018-08-23T14:42:19.040Z,99.90
2018-08-23T14:44:52.369Z,99.90
2018-08-23T14:47:34.275Z,99.90
2018-08-23T14:50:07.545Z,99.90
2018-08-23T14:52:41.237Z,99.90
2018-08-23T14:55:18.638Z,99.90
2018-08-23T15:01:42.071Z,99.90
2018-08-23T15:07:06.815Z,99.90
2018-08-23T15:09:49.789Z,99.90
2018-08-23T15:15:51.888Z,99.90
2018-08-23T15:18:45.289Z,99.90
2018-08-23T15:24:47.239Z,99.90
2018-08-23T15:27:23.741Z,99.90
2018-08-23T15:30:00.614Z,99.90
2018-08-23T15:35:50.270Z,99.90
2018-08-23T15:38:26.850Z,99.90
2018-08-23T15:44:30.854Z,99.90
2018-08-23T15:47:29.636Z,99.90
2018-08-23T15:50:07.830Z,99.90
2018-08-23T15:52:47.952Z,99.90
2018-08-23T15:55:30.098Z,99.90
2018-08-23T15:58:08.461Z,99.90
2018-08-23T16:00:46.250Z,99.90
2018-08-23T16:03:20.482Z,99.90
2018-08-23T16:06:08.188Z,99.90
2018-08-23T16:08:47.144Z,99.90
2018-08-23T16:11:28.020Z,99.90
2018-08-23T16:14:07.481Z,99.90
2018-08-23T16:16:51.273Z,99.90
2018-08-23T16:19:29.543Z,99.90
2018-08-23T16:22:03.019Z,99.90
2018-08-23T16:24:38.013Z,99.90
2018-08-23T16:30:43.949Z,99.90
2018-08-23T16:37:00.620Z,99.90
2018-08-23T16:40:05.853Z,99.90
2018-08-23T16:42:55.261Z,99.90
2018-08-23T16:48:57.146Z,99.90
2018-08-23T16:55:17.730Z,99.90
2018-08-23T17:08:33.199Z,99.90
2018-08-23T17:11:33.740Z,99.90
2018-08-23T17:14:15.378Z,99.90
2018-08-23T17:17:25.734Z,99.90
2018-08-23T17:20:26.048Z,99.90
2018-08-23T17:23:09.786Z,99.90
2018-08-23T17:34:36.871Z,99.90
2018-08-23T17:37:12.244Z,99.90
2018-08-23T17:39:54.729Z,99.90
2018-08-23T17:42:33.602Z,99.90
2018-08-23T17:45:08.332Z,99.90
2018-08-23T17:47:53.368Z,99.90
2018-08-23T17:50:32.766Z,99.90
2018-08-23T17:53:09.224Z,99.90
2018-08-23T17:55:57.283Z,99.90
2018-08-23T17:58:31.855Z,99.90
2018-08-23T18:01:09.492Z,99.90
2018-08-23T18:03:47.291Z,99.90
2018-08-23T18:06:31.692Z,99.90
2018-08-23T18:13:28.777Z,99.90
2018-08-23T18:17:10.572Z,99.90
2018-08-23T18:19:52.208Z,99.90
2018-08-23T18:22:28.947Z,99.90
2018-08-23T18:25:07.673Z,99.90
2018-08-23T18:27:48.698Z,99.90
2018-08-23T18:30:26.392Z,99.90
2018-08-23T18:33:01.047Z,99.90
2018-08-23T18:35:34.487Z,99.90
2018-08-23T18:38:09.106Z,99.90
2018-08-23T18:40:44.022Z,99.90
2018-08-23T18:43:25.951Z,99.90
2018-08-23T18:46:03.187Z,99.90
2018-08-23T18:48:39.727Z,99.90
2018-08-23T18:51:14.581Z,99.90
2018-08-23T18:53:47.937Z,99.90
2018-08-23T18:56:20.991Z,99.90
2018-08-23T18:58:54.291Z,99.90
2018-08-23T19:01:28.084Z,99.90
2018-08-23T19:04:04.228Z,99.90
2018-08-23T19:06:39.879Z,99.90
2018-08-23T19:09:15.584Z,99.90
2018-08-23T19:11:48.942Z,99.90
2018-08-23T19:14:26.310Z,99.90
2018-08-23T19:17:03.941Z,99.90
2018-08-23T19:19:42.397Z,99.90
2018-08-23T19:24:53.594Z,99.70
2018-08-23T19:27:26.786Z,99.00
2018-08-23T19:30:02.754Z,98.90
2018-08-23T19:32:36.589Z,99.10
2018-08-23T19:35:09.869Z,98.60
2018-08-23T19:37:45.685Z,98.30
2018-08-23T19:40:21.750Z,98.70
2018-08-23T19:42:55.312Z,98.50
2018-08-23T19:45:29.784Z,98.80
2018-08-23T19:48:03.103Z,99.40
2018-08-23T19:50:38.069Z,99.10
2018-08-23T19:53:12.746Z,99.20
2018-08-23T19:55:47.990Z,98.90
2018-08-23T19:58:23.035Z,99.10
2018-08-23T20:00:56.229Z,99.30
2018-08-23T20:03:31.125Z,98.20
2018-08-23T20:06:04.499Z,98.10
2018-08-23T20:08:37.841Z,97.80
2018-08-23T20:11:11.061Z,98.20
2018-08-23T20:13:47.084Z,97.50
2018-08-23T20:16:22.862Z,98.10
2018-08-23T20:18:56.284Z,97.80
2018-08-23T20:21:30.449Z,97.50
2018-08-23T20:24:05.871Z,97.40
2018-08-23T20:26:43.666Z,96.30
2018-08-23T20:29:22.132Z,96.60
2018-08-23T20:31:57.502Z,96.90
2018-08-23T20:34:35.283Z,96.00
2018-08-23T20:37:14.352Z,96.70
2018-08-23T20:39:48.357Z,96.80
2018-08-23T20:42:27.652Z,96.40
2018-08-23T20:45:03.698Z,96.10
2018-08-23T20:47:38.061Z,96.80
2018-08-23T20:50:23.042Z,96.20
2018-08-23T20:52:58.708Z,96.30
2018-08-23T20:55:32.117Z,96.40
2018-08-23T20:58:06.876Z,95.10
2018-08-23T21:00:47.214Z,94.70
2018-08-23T21:03:29.520Z,95.30
2018-08-23T21:06:07.081Z,95.40
2018-08-23T21:08:41.988Z,95.30
2018-08-23T21:11:25.325Z,95.70
2018-08-23T21:14:12.863Z,94.40
2018-08-23T21:16:46.080Z,95.00
2018-08-23T21:19:21.020Z,94.90
2018-08-23T21:21:55.099Z,95.00
2018-08-23T21:24:28.854Z,95.20
2018-08-23T21:27:03.699Z,95.00
2018-08-23T21:29:40.417Z,96.10
2018-08-23T21:32:20.542Z,96.10
2018-08-23T21:34:57.123Z,96.20
2018-08-23T21:37:31.660Z,95.20
2018-08-23T21:40:07.734Z,95.70
2018-08-23T21:42:42.818Z,94.70
2018-08-23T21:45:17.234Z,94.30
2018-08-23T21:47:50.793Z,94.60
2018-08-23T21:50:25.514Z,94.00
2018-08-23T21:53:03.449Z,94.80
2018-08-23T21:55:41.545Z,95.20
2018-08-23T21:58:26.700Z,95.20
2018-08-23T22:01:05.729Z,95.00
2018-08-23T22:03:44.804Z,96.20
2018-08-23T22:06:20.192Z,94.50
2018-08-23T22:09:00.527Z,94.60
2018-08-23T22:11:41.795Z,93.70
2018-08-23T22:14:18.838Z,93.90
2018-08-23T22:16:59.768Z,93.80
2018-08-23T22:19:33.368Z,93.70
2018-08-23T22:22:08.984Z,93.60
2018-08-23T22:24:43.715Z,93.00
2018-08-23T22:27:17.929Z,93.10
2018-08-23T22:29:51.429Z,93.30
2018-08-23T22:32:25.804Z,93.70
2018-08-23T22:35:00.030Z,93.20
2018-08-23T22:37:33.299Z,93.20
2018-08-23T22:40:07.234Z,93.90
2018-08-23T22:42:47.325Z,93.50
2018-08-23T22:45:23.770Z,92.80
2018-08-23T22:47:58.712Z,93.60
2018-08-23T22:50:34.894Z,93.90
2018-08-23T22:53:09.704Z,93.60
2018-08-23T22:55:44.764Z,93.90
2018-08-23T22:58:17.964Z,93.30
2018-08-23T23:00:52.000Z,92.20
2018-08-23T23:03:29.725Z,92.80
2018-08-23T23:06:03.636Z,93.00
2018-08-23T23:08:38.280Z,92.90
2018-08-23T23:11:12.873Z,93.40
2018-08-23T23:13:46.216Z,93.50
2018-08-23T23:16:19.805Z,94.20
2018-08-23T23:18:53.108Z,94.20
2018-08-23T23:21:28.178Z,93.70
2018-08-23T23:24:01.606Z,93.00
2018-08-23T23:26:34.873Z,93.70
2018-08-23T23:29:09.748Z,92.60
2018-08-23T23:31:43.873Z,92.70
2018-08-23T23:34:18.260Z,93.70
2018-08-23T23:36:51.218Z,93.40
2018-08-23T23:39:25.328Z,92.90
2018-08-23T23:41:59.791Z,93.50
2018-08-23T23:44:34.793Z,93.10
2018-08-23T23:47:08.486Z,93.10
2018-08-23T23:49:43.876Z,93.30
2018-08-23T23:52:16.915Z,92.10
2018-08-23T23:54:50.763Z,91.90
2018-08-23T23:57:24.780Z,91.90
2018-08-23T23:59:58.057Z,92.00
